Time;durP1;ratioP1;P1;durP2;ratioP2;P2;SDS_P1;SDS_P2;PMS_P1;PMS_P2;Temp;Humidity;BMP_temperature;BMP_pressure;BME280_temperature;BME280_humidity;BME280_pressure;Samples;Min_cycle;Max_cycle;Signal;HPM_P1;HPM_P2
2021/11/28 00:00:13;;;;;;;56.70;42.75;;;;;;;6.08;79.86;100079.13;2098166;28;20220;-61
2021/11/28 00:01:15;;;;;;;58.25;43.95;;;;;;;6.33;80.34;100107.84;2097603;28;20659;-61
2021/11/28 00:02:19;;;;;;;60.25;44.53;;;;;;;5.96;80.52;100047.47;2097643;28;20194;-61
2021/11/28 00:03:20;;;;;;;57.85;44.30;;;;;;;6.17;80.37;100082.13;2098076;28;20186;-61
2021/11/28 00:04:22;;;;;;;62.33;44.45;;;;;;;6.49;79.75;100116.25;2097356;28;20186;-60
2021/11/28 00:05:25;;;;;;;49.53;39.33;;;;;;;6.54;80.12;100129.53;2097992;28;20233;-61
2021/11/28 00:06:28;;;;;;;49.65;39.40;;;;;;;6.56;80.09;100129.13;2098107;28;20171;-62
2021/11/28 00:10:16;;;;;;;43.65;35.75;;;;;;;5.94;79.35;100014.09;2098157;28;20198;-61
2021/11/28 00:11:22;;;;;;;46.65;37.83;;;;;;;6.80;79.15;100134.22;2098137;28;20163;-61
2021/11/28 00:13:35;;;;;;;47.10;38.23;;;;;;;6.84;78.83;100118.44;2098030;28;20179;-61
2021/11/28 00:14:37;;;;;;;53.42;40.60;;;;;;;6.75;78.56;100114.63;2097839;28;20611;-61
2021/11/28 00:15:38;;;;;;;51.28;40.75;;;;;;;6.79;79.17;100107.09;2097547;28;20257;-61
2021/11/28 00:16:39;;;;;;;51.63;41.07;;;;;;;6.45;78.89;100060.47;2097959;28;20240;-61
2021/11/28 00:17:40;;;;;;;52.20;41.40;;;;;;;6.14;78.93;100001.22;2097339;28;20286;-61
2021/11/28 00:18:41;;;;;;;49.87;40.93;;;;;;;6.85;78.65;100103.44;2088688;28;20184;-61
2021/11/28 00:19:42;;;;;;;49.10;38.57;;;;;;;6.89;78.89;100112.44;2080742;28;20272;-61
2021/11/28 00:20:42;;;;;;;47.13;38.47;;;;;;;6.14;78.66;100000.44;2080817;28;20196;-61
2021/11/28 00:21:43;;;;;;;49.50;39.53;;;;;;;6.37;78.59;100031.50;2088986;28;20229;-61
2021/11/28 00:22:44;;;;;;;49.17;38.50;;;;;;;7.01;78.14;100111.81;2099493;28;20333;-61
2021/11/28 00:23:45;;;;;;;50.92;40.10;;;;;;;7.07;78.13;100109.38;2106371;28;20174;-61
2021/11/28 00:24:45;;;;;;;48.67;39.30;;;;;;;7.10;77.86;100097.50;2106000;28;20313;-61
2021/11/28 00:25:46;;;;;;;48.90;40.70;;;;;;;6.98;78.46;100098.88;2105787;28;20179;-61
2021/11/28 00:26:48;;;;;;;56.00;43.63;;;;;;;6.88;78.73;100088.81;2106287;28;20256;-61
2021/11/28 00:27:50;;;;;;;53.22;42.28;;;;;;;6.92;78.96;100092.31;2098266;28;20176;-61
2021/11/28 00:28:51;;;;;;;58.50;42.80;;;;;;;6.48;78.91;100012.84;2088596;28;20200;-60
2021/11/28 00:29:52;;;;;;;46.38;38.72;;;;;;;7.06;78.83;100105.84;2089141;28;20180;-62
2021/11/28 00:30:53;;;;;;;50.30;40.23;;;;;;;7.11;78.33;100108.09;2098051;28;20180;-62
2021/11/28 00:31:55;;;;;;;49.53;40.58;;;;;;;6.43;78.73;100001.53;2097871;28;20180;-61
2021/11/28 00:32:59;;;;;;;49.47;40.17;;;;;;;6.74;78.43;100041.50;2097702;28;20207;-61
2021/11/28 00:33:59;;;;;;;45.95;39.22;;;;;;;6.59;78.17;100029.16;2097846;28;20179;-61
2021/11/28 00:35:00;;;;;;;47.23;38.70;;;;;;;7.30;78.08;100109.34;2097710;28;20664;-62
2021/11/28 00:36:00;;;;;;;47.30;39.33;;;;;;;7.31;78.24;100105.38;2097736;28;20257;-61
2021/11/28 00:37:01;;;;;;;48.93;40.03;;;;;;;7.34;77.73;100102.53;2097105;28;20566;-60
2021/11/28 00:38:02;;;;;;;46.83;39.33;;;;;;;7.02;78.16;100058.28;2097502;28;20770;-62
2021/11/28 00:39:03;;;;;;;45.53;38.17;;;;;;;7.35;77.81;100095.84;2097391;28;20640;-61
2021/11/28 00:40:04;;;;;;;47.42;38.38;;;;;;;7.43;77.79;100107.53;2097815;28;20241;-61
2021/11/28 00:41:05;;;;;;;46.33;38.30;;;;;;;7.47;77.63;100100.72;2097687;28;20173;-61
2021/11/28 00:42:06;;;;;;;43.30;37.33;;;;;;;7.51;77.77;100111.69;2097832;28;20266;-61
2021/11/28 00:43:07;;;;;;;47.83;38.75;;;;;;;7.54;77.77;100102.56;2097750;28;20219;-61
2021/11/28 00:44:07;;;;;;;46.87;38.47;;;;;;;7.55;77.52;100112.41;2097856;28;20172;-61
2021/11/28 00:45:08;;;;;;;45.30;37.83;;;;;;;7.54;77.69;100097.81;2097712;28;20203;-61
2021/11/28 00:46:09;;;;;;;49.15;39.30;;;;;;;7.58;77.24;100109.56;2097875;28;20608;-61
2021/11/28 00:47:11;;;;;;;46.00;37.97;;;;;;;7.60;77.40;100111.91;2097076;28;20180;-61
2021/11/28 00:48:12;;;;;;;47.58;38.10;;;;;;;6.96;77.07;100013.16;2097316;28;20169;-61
2021/11/28 00:49:16;;;;;;;45.85;38.80;;;;;;;7.62;77.18;100107.50;2097232;28;20185;-61
2021/11/28 00:50:28;;;;;;;46.40;36.58;;;;;;;6.92;77.23;100006.16;2088761;28;20573;-62
2021/11/28 00:52:48;;;;;;;47.15;34.83;;;;;;;7.56;77.22;100081.66;2097680;28;20163;-61
2021/11/28 00:53:51;;;;;;;42.23;34.83;;;;;;;7.56;77.60;100078.09;2097787;28;20266;-61
2021/11/28 00:54:51;;;;;;;43.20;34.80;;;;;;;7.56;77.13;100075.34;2097629;28;20167;-61
2021/11/28 00:55:51;;;;;;;42.70;33.97;;;;;;;7.55;76.91;100060.00;2097679;28;20173;-61
2021/11/28 00:56:52;;;;;;;40.47;33.40;;;;;;;7.60;76.81;100065.03;2097648;28;20187;-62
2021/11/28 00:57:53;;;;;;;41.13;33.07;;;;;;;7.62;77.07;100060.63;2096338;28;20225;-61
2021/11/28 00:58:53;;;;;;;38.50;33.47;;;;;;;6.55;76.53;99888.84;2102594;28;20410;-62
2021/11/28 00:59:54;;;;;;;41.87;33.77;;;;;;;7.66;76.78;100055.84;2106056;28;20186;-61
2021/11/28 01:00:54;;;;;;;41.93;33.00;;;;;;;7.65;76.77;100048.78;2106147;28;20175;-62
2021/11/28 01:01:55;;;;;;;39.83;32.47;;;;;;;7.12;76.36;99957.34;2106071;28;20262;-61
2021/11/28 01:02:56;;;;;;;40.23;31.73;;;;;;;7.65;76.20;100037.75;2106058;28;20179;-61
2021/11/28 01:03:57;;;;;;;40.70;32.40;;;;;;;7.70;75.89;100045.47;2105973;28;20174;-61
2021/11/28 01:04:57;;;;;;;38.73;31.37;;;;;;;7.72;75.91;100050.56;2105933;28;20295;-61
2021/11/28 01:05:58;;;;;;;39.67;31.33;;;;;;;7.72;75.84;100039.53;2106247;28;20179;-61
2021/11/28 01:06:59;;;;;;;36.67;31.37;;;;;;;7.70;75.56;100036.44;2105955;28;20183;-61
2021/11/28 01:07:59;;;;;;;39.50;30.53;;;;;;;7.69;75.69;100034.91;2105343;28;20199;-61
2021/11/28 01:09:00;;;;;;;37.27;31.50;;;;;;;7.68;75.92;100030.59;2105105;28;20176;-62
2021/11/28 01:10:00;;;;;;;36.20;30.43;;;;;;;7.66;75.61;100041.25;2105969;28;20179;-62
2021/11/28 01:11:01;;;;;;;38.83;31.30;;;;;;;7.50;75.75;100022.69;2105963;28;20179;-61
2021/11/28 01:12:02;;;;;;;35.60;30.97;;;;;;;7.65;75.80;100053.50;2106163;28;20611;-61
2021/11/28 01:13:03;;;;;;;36.58;30.58;;;;;;;7.65;75.77;100059.81;2105938;28;20185;-62
2021/11/28 01:14:04;;;;;;;37.13;30.73;;;;;;;7.66;75.64;100075.13;2106189;28;20183;-61
2021/11/28 01:15:06;;;;;;;36.10;30.38;;;;;;;7.67;75.54;100073.94;2105939;28;20179;-62
2021/11/28 01:16:07;;;;;;;36.40;29.40;;;;;;;7.02;75.33;99974.88;2096885;28;20276;-62
2021/11/28 01:17:08;;;;;;;35.57;29.47;;;;;;;6.85;74.91;99954.75;2096941;28;20179;-62
2021/11/28 01:18:08;;;;;;;36.53;29.83;;;;;;;7.67;75.34;100060.13;2105319;28;20207;-62
2021/11/28 01:19:09;;;;;;;40.97;31.37;;;;;;;7.67;74.80;100046.34;2104889;28;20776;-61
2021/11/28 01:20:11;;;;;;;39.00;31.47;;;;;;;7.62;75.04;100033.06;2105860;28;20184;-61
2021/11/28 01:21:12;;;;;;;40.33;32.15;;;;;;;7.40;75.09;100000.84;2105817;28;20183;-61
2021/11/28 01:22:14;;;;;;;41.57;32.60;;;;;;;7.58;75.04;100032.34;2106039;28;20251;-61
2021/11/28 01:23:15;;;;;;;38.00;31.52;;;;;;;7.57;75.24;100041.84;2106004;28;20193;-61
2021/11/28 01:24:16;;;;;;;37.57;30.40;;;;;;;7.56;75.04;100045.81;2105899;28;20178;-61
2021/11/28 01:25:16;;;;;;;38.87;31.20;;;;;;;7.15;74.98;99986.78;2105998;28;20190;-61
2021/11/28 01:26:17;;;;;;;36.70;30.67;;;;;;;7.56;74.91;100065.09;2105898;28;20175;-61
2021/11/28 01:27:18;;;;;;;38.87;30.97;;;;;;;7.54;74.62;100075.75;2105913;28;20182;-61
2021/11/28 01:28:19;;;;;;;37.88;32.10;;;;;;;7.08;74.97;100009.00;2105334;28;20180;-62
2021/11/28 01:29:20;;;;;;;38.17;30.57;;;;;;;7.56;74.69;100091.88;2105319;28;20185;-61
2021/11/28 01:30:20;;;;;;;39.13;31.37;;;;;;;7.54;74.93;100086.78;2105511;28;20171;-61
2021/11/28 01:31:21;;;;;;;41.53;32.77;;;;;;;7.41;74.46;100060.28;2105841;28;20188;-62
2021/11/28 01:32:22;;;;;;;38.03;31.47;;;;;;;7.55;74.72;100093.09;2105986;28;20405;-62
2021/11/28 01:33:23;;;;;;;36.93;30.53;;;;;;;7.53;74.72;100090.75;2105956;28;20183;-61
2021/11/28 01:34:23;;;;;;;40.37;30.73;;;;;;;7.51;74.65;100093.16;2105782;28;20232;-61
2021/11/28 01:35:24;;;;;;;41.70;32.53;;;;;;;7.52;74.81;100085.66;2105892;28;20185;-62
2021/11/28 01:36:25;;;;;;;38.47;31.15;;;;;;;7.50;74.71;100093.59;2105834;28;20196;-61
2021/11/28 01:37:25;;;;;;;41.07;31.03;;;;;;;7.49;75.10;100095.56;2107296;28;20175;-61
2021/11/28 01:38:26;;;;;;;40.43;32.07;;;;;;;7.49;75.09;100103.81;2106950;28;20251;-61
2021/11/28 01:39:26;;;;;;;44.97;33.53;;;;;;;6.74;75.25;99984.47;2107123;28;20171;-61
2021/11/28 01:40:27;;;;;;;42.60;34.13;;;;;;;7.39;75.53;100088.28;2106743;28;20572;-61
2021/11/28 01:41:28;;;;;;;43.83;34.73;;;;;;;7.49;75.74;100103.81;2107520;28;20179;-61
2021/11/28 01:42:35;;;;;;;39.90;33.40;;;;;;;7.52;75.48;100113.22;2107639;28;20167;-62
2021/11/28 01:43:35;;;;;;;40.53;33.40;;;;;;;7.53;75.33;100109.28;2107593;28;20174;-61
2021/11/28 01:44:36;;;;;;;42.00;33.40;;;;;;;7.49;75.54;100092.03;2107722;28;20257;-61
2021/11/28 01:45:37;;;;;;;41.87;34.20;;;;;;;7.53;75.41;100085.25;2107496;28;20182;-62
2021/11/28 01:46:38;;;;;;;39.97;33.10;;;;;;;7.43;75.34;100080.72;2107611;28;20174;-61
2021/11/28 01:47:38;;;;;;;40.83;32.87;;;;;;;7.45;75.87;100080.28;2107176;28;20494;-61
2021/11/28 01:48:39;;;;;;;56.67;32.47;;;;;;;7.39;75.49;100082.00;2107108;28;20423;-61
2021/11/28 01:49:39;;;;;;;39.30;30.77;;;;;;;7.40;75.43;100087.09;2107407;28;20175;-61
2021/11/28 01:50:43;;;;;;;38.97;31.93;;;;;;;7.38;74.90;100080.44;2107103;28;20198;-61
2021/11/28 01:51:43;;;;;;;39.55;32.63;;;;;;;7.47;75.34;100086.16;2107398;28;20175;-61
2021/11/28 01:52:44;;;;;;;38.73;31.73;;;;;;;7.37;75.20;100078.88;2107518;28;20235;-61
2021/11/28 01:53:47;;;;;;;37.00;31.50;;;;;;;7.38;75.08;100089.47;2107578;28;20616;-62
2021/11/28 01:54:48;;;;;;;39.00;30.75;;;;;;;7.37;75.69;100098.94;2107391;28;20179;-61
2021/11/28 01:55:48;;;;;;;38.83;30.70;;;;;;;6.53;75.11;99971.06;2107417;28;20208;-61
2021/11/28 01:56:50;;;;;;;42.20;32.20;;;;;;;7.39;75.59;100087.50;2098406;28;20180;-61
2021/11/28 01:57:52;;;;;;;41.35;30.67;;;;;;;7.34;75.18;100080.50;2098241;28;20207;-62
2021/11/28 01:58:53;;;;;;;38.83;31.40;;;;;;;7.23;74.81;100077.16;2106396;28;20630;-61
2021/11/28 01:59:54;;;;;;;35.90;29.02;;;;;;;7.25;75.15;100082.25;2107470;28;20186;-62
2021/11/28 02:00:58;;;;;;;34.53;29.77;;;;;;;7.25;75.00;100096.81;2107367;28;20198;-61
2021/11/28 02:01:59;;;;;;;38.33;30.33;;;;;;;7.26;74.67;100095.63;2106987;28;20262;-62
2021/11/28 02:02:59;;;;;;;36.70;31.10;;;;;;;6.48;74.87;99971.56;2107380;28;20171;-61
2021/11/28 02:04:02;;;;;;;40.17;31.67;;;;;;;6.39;75.01;99965.03;2107621;28;20612;-62
2021/11/28 02:05:03;;;;;;;40.28;32.65;;;;;;;7.11;75.17;100060.47;2107277;28;20181;-61
2021/11/28 02:06:05;;;;;;;39.63;31.70;;;;;;;7.12;75.35;100062.06;2107423;28;20262;-61
2021/11/28 02:07:07;;;;;;;36.05;30.55;;;;;;;6.49;75.00;99959.34;2107322;28;20185;-61
2021/11/28 02:08:08;;;;;;;41.13;32.10;;;;;;;7.10;75.34;100056.97;2107117;28;20203;-62
2021/11/28 02:09:08;;;;;;;38.63;31.60;;;;;;;7.04;75.53;100055.91;2106708;28;20179;-61
2021/11/28 02:10:10;;;;;;;37.67;31.63;;;;;;;6.91;75.66;100034.88;2107494;28;20242;-62
2021/11/28 02:11:13;;;;;;;40.35;32.60;;;;;;;6.98;75.67;100046.53;2107354;28;20660;-61
2021/11/28 02:12:13;;;;;;;39.42;32.65;;;;;;;6.97;75.81;100041.47;2097739;28;20183;-61
2021/11/28 02:13:16;;;;;;;42.40;33.37;;;;;;;6.95;75.59;100043.84;2098291;28;20184;-62
2021/11/28 02:14:16;;;;;;;46.03;33.15;;;;;;;6.70;75.80;99993.97;2107356;28;20266;-62
2021/11/28 02:15:19;;;;;;;46.33;31.80;;;;;;;6.39;75.82;99951.25;2107361;28;20187;-61
2021/11/28 02:16:19;;;;;;;46.00;34.50;;;;;;;6.74;76.48;100023.00;2107255;28;20179;-61
2021/11/28 02:17:20;;;;;;;53.07;34.73;;;;;;;5.95;76.49;99894.66;2107241;28;20652;-61
2021/11/28 02:18:23;;;;;;;41.03;32.57;;;;;;;6.79;76.73;100027.25;2107007;28;20250;-61
2021/11/28 02:19:24;;;;;;;38.17;30.50;;;;;;;6.81;76.18;100031.13;2097724;28;20184;-62
2021/11/28 02:20:27;;;;;;;40.80;33.17;;;;;;;6.83;76.16;100041.72;2098327;28;20187;-61
2021/11/28 02:21:27;;;;;;;40.15;33.30;;;;;;;6.83;76.32;100036.97;2107124;28;20291;-62
2021/11/28 02:22:28;;;;;;;41.33;33.33;;;;;;;6.56;76.20;99997.75;2107297;28;20656;-61
2021/11/28 02:23:29;;;;;;;39.53;33.53;;;;;;;6.87;75.92;100034.19;2106762;28;20183;-61
2021/11/28 02:24:29;;;;;;;41.17;34.50;;;;;;;6.90;76.38;100042.38;2107385;28;20178;-61
2021/11/28 02:25:30;;;;;;;44.07;34.40;;;;;;;6.87;76.27;100036.94;2107228;28;20199;-61
2021/11/28 02:26:31;;;;;;;44.50;32.10;;;;;;;6.86;76.30;100013.31;2107178;28;20191;-62
2021/11/28 02:27:31;;;;;;;39.33;31.67;;;;;;;6.83;76.03;100028.72;2106814;28;20202;-61
2021/11/28 02:28:33;;;;;;;41.27;32.17;;;;;;;6.51;76.21;99981.72;2107189;28;20265;-61
2021/11/28 02:29:38;;;;;;;43.30;33.45;;;;;;;6.25;76.40;99957.03;2106901;28;20657;-62
2021/11/28 02:30:39;;;;;;;41.58;30.33;;;;;;;6.73;76.01;100028.91;2107143;28;20183;-61
2021/11/28 02:31:40;;;;;;;37.38;29.50;;;;;;;6.78;75.69;100025.69;2107134;28;20636;-61
2021/11/28 02:32:40;;;;;;;38.97;30.07;;;;;;;6.77;75.35;100024.91;2107228;28;20552;-61
2021/11/28 02:33:41;;;;;;;42.97;32.40;;;;;;;6.76;75.32;100036.34;2106564;28;20174;-61
2021/11/28 02:34:42;;;;;;;40.03;33.23;;;;;;;6.73;76.12;100032.47;2107267;28;20208;-61
2021/11/28 02:35:42;;;;;;;39.47;31.40;;;;;;;6.75;75.96;100035.56;2098193;28;20685;-61
2021/11/28 02:36:43;;;;;;;39.17;31.00;;;;;;;6.75;75.41;100030.06;2098039;28;20199;-61
2021/11/28 02:37:46;;;;;;;40.27;32.60;;;;;;;6.71;75.54;100023.06;2106591;28;20295;-61
2021/11/28 02:38:46;;;;;;;37.03;30.35;;;;;;;6.73;76.02;100028.91;2106794;28;20181;-61
2021/11/28 02:39:47;;;;;;;45.63;36.10;;;;;;;6.71;76.14;100026.59;2107008;28;20185;-61
2021/11/28 02:40:48;;;;;;;55.80;37.50;;;;;;;6.66;77.08;100020.81;2107184;28;20560;-62
2021/11/28 02:41:49;;;;;;;65.73;36.70;;;;;;;6.66;76.80;100018.03;2107104;28;20637;-61
2021/11/28 02:42:51;;;;;;;50.28;36.25;;;;;;;6.66;76.52;100020.81;2107175;28;20179;-61
2021/11/28 02:43:51;;;;;;;48.65;36.05;;;;;;;6.61;76.85;100010.28;2106923;28;20235;-60
2021/11/28 02:44:52;;;;;;;44.73;35.70;;;;;;;6.08;76.61;99944.34;2106675;28;20254;-61
2021/11/28 02:45:53;;;;;;;48.30;37.93;;;;;;;6.59;76.62;100023.66;2107223;28;20213;-62
2021/11/28 02:46:54;;;;;;;54.70;41.50;;;;;;;6.55;77.48;100031.19;2107164;28;20181;-61
2021/11/28 02:47:57;;;;;;;39.43;32.73;;;;;;;6.55;77.34;100023.72;2106670;28;20744;-61
2021/11/28 02:48:58;;;;;;;39.95;33.00;;;;;;;6.57;76.90;100026.06;2106552;28;20186;-62
2021/11/28 02:49:58;;;;;;;43.23;33.80;;;;;;;6.60;75.92;100031.50;2106974;28;20736;-61
2021/11/28 02:51:00;;;;;;;43.27;35.40;;;;;;;6.61;76.15;100021.28;2107010;28;20648;-61
2021/11/28 02:52:01;;;;;;;50.92;41.03;;;;;;;6.64;76.90;100034.19;2107198;28;20176;-61
2021/11/28 02:53:04;;;;;;;50.77;40.80;;;;;;;6.61;77.44;100021.28;2107097;28;20765;-61
2021/11/28 02:54:06;;;;;;;40.72;33.38;;;;;;;6.66;76.75;100032.56;2107132;28;20185;-61
2021/11/28 02:55:07;;;;;;;37.28;31.08;;;;;;;6.68;76.37;100026.66;2106349;28;20175;-61
2021/11/28 02:56:08;;;;;;;46.83;38.22;;;;;;;6.68;76.69;100035.69;2107026;28;20261;-62
2021/11/28 02:57:09;;;;;;;47.73;37.97;;;;;;;6.59;76.95;100015.41;2106990;28;20187;-62
2021/11/28 02:58:11;;;;;;;36.22;30.55;;;;;;;5.91;76.15;99913.19;2106517;28;20629;-62
2021/11/28 02:59:12;;;;;;;35.70;29.52;;;;;;;6.71;75.98;100039.59;2106488;28;20189;-62
2021/11/28 03:00:13;;;;;;;42.60;29.63;;;;;;;6.54;75.46;100018.63;2106795;28;20173;-61
2021/11/28 03:01:18;;;;;;;45.40;32.45;;;;;;;6.71;74.83;100034.09;2107003;28;20663;-61
2021/11/28 03:02:19;;;;;;;77.65;35.88;;;;;;;6.69;75.34;100034.50;2106785;28;20166;-61
2021/11/28 03:03:19;;;;;;;88.27;38.43;;;;;;;6.67;75.00;100033.38;2107012;28;20232;-61
2021/11/28 03:04:20;;;;;;;183.97;36.03;;;;;;;6.54;75.32;100041.44;2106972;28;20581;-61
2021/11/28 03:05:21;;;;;;;58.57;46.00;;;;;;;5.86;75.55;99934.88;2106121;28;20178;-62
2021/11/28 03:06:22;;;;;;;62.67;48.47;;;;;;;6.02;75.97;99959.75;2106965;28;20182;-62
2021/11/28 03:07:22;;;;;;;63.57;49.60;;;;;;;6.52;76.29;100038.31;2106973;28;20182;-61
2021/11/28 03:08:23;;;;;;;45.07;36.33;;;;;;;5.81;76.34;99944.38;2106335;28;20189;-61
2021/11/28 03:09:24;;;;;;;47.70;39.70;;;;;;;6.36;76.42;100031.94;2106517;28;20239;-62
2021/11/28 03:10:37;;;;;;;51.47;42.80;;;;;;;6.41;76.25;100042.47;2106699;28;20652;-61
2021/11/28 03:11:37;;;;;;;61.00;49.35;;;;;;;6.45;76.70;100041.19;2106944;28;20160;-61
2021/11/28 03:12:38;;;;;;;66.93;54.53;;;;;;;6.41;76.79;100037.72;2106854;28;20254;-62
2021/11/28 03:13:48;;;;;;;57.90;46.83;;;;;;;6.43;77.08;100037.31;2106880;28;20179;-60
2021/11/28 03:14:49;;;;;;;61.38;49.45;;;;;;;5.92;76.60;99960.72;2106904;28;20163;-61
2021/11/28 03:15:52;;;;;;;60.80;49.13;;;;;;;6.45;76.40;100021.94;2106335;28;20735;-60
2021/11/28 03:16:53;;;;;;;58.50;48.70;;;;;;;6.46;76.51;100025.47;2106784;28;20178;-61
2021/11/28 03:17:54;;;;;;;56.13;45.50;;;;;;;5.80;76.40;99926.31;2106382;28;20698;-61
2021/11/28 03:18:54;;;;;;;58.83;46.00;;;;;;;6.46;76.97;100045.50;2106441;28;20188;-61
2021/11/28 03:19:55;;;;;;;49.17;41.73;;;;;;;6.51;76.31;100047.00;2106644;28;20263;-62
2021/11/28 03:20:58;;;;;;;49.73;41.50;;;;;;;6.53;75.99;100045.41;2106828;28;20239;-62
2021/11/28 03:22:00;;;;;;;49.25;39.67;;;;;;;6.54;76.17;100035.16;2106516;28;20227;-61
2021/11/28 03:23:00;;;;;;;57.67;42.60;;;;;;;6.55;76.11;100039.44;2106792;28;20178;-61
2021/11/28 03:24:03;;;;;;;52.93;42.17;;;;;;;6.54;75.13;100037.91;2106952;28;20175;-61
2021/11/28 03:25:09;;;;;;;65.95;52.50;;;;;;;6.50;75.61;100037.19;2106698;28;20189;-61
2021/11/28 03:26:16;;;;;;;58.80;41.25;;;;;;;6.46;76.33;100040.00;2106534;28;20541;-61
2021/11/28 03:27:17;;;;;;;43.05;35.95;;;;;;;6.32;75.24;100011.94;2106313;28;20548;-61
2021/11/28 03:28:19;;;;;;;49.87;41.07;;;;;;;6.47;75.30;100043.53;2106372;28;20171;-61
2021/11/28 03:29:23;;;;;;;65.68;50.55;;;;;;;6.46;75.86;100040.00;2106344;28;20228;-61
2021/11/28 03:30:24;;;;;;;66.13;51.92;;;;;;;6.33;77.00;100041.00;2106621;28;20559;-62
2021/11/28 03:31:26;;;;;;;58.03;45.77;;;;;;;6.32;76.76;100037.50;2106739;28;20229;-62
2021/11/28 03:32:27;;;;;;;57.35;45.33;;;;;;;6.33;76.91;100038.25;2106630;28;20568;-62
2021/11/28 03:33:27;;;;;;;49.87;41.13;;;;;;;6.33;76.51;100044.53;2106850;28;20444;-60
2021/11/28 03:34:28;;;;;;;58.93;50.03;;;;;;;6.36;76.22;100032.69;2106849;28;20186;-61
2021/11/28 03:35:29;;;;;;;55.83;45.17;;;;;;;6.31;76.86;100038.66;2106771;28;20266;-61
2021/11/28 03:36:30;;;;;;;49.93;40.03;;;;;;;6.31;76.31;100035.16;2106808;28;20358;-61
2021/11/28 03:37:31;;;;;;;45.20;38.72;;;;;;;5.51;75.94;99924.38;2105375;28;20188;-61
2021/11/28 03:38:32;;;;;;;46.03;38.33;;;;;;;6.36;75.98;100051.19;2106425;28;20210;-61
2021/11/28 03:39:32;;;;;;;49.43;39.50;;;;;;;6.35;75.69;100050.41;2106390;28;20259;-61
2021/11/28 03:40:38;;;;;;;47.23;39.23;;;;;;;6.32;74.86;100043.00;2106542;28;20174;-61
2021/11/28 03:41:41;;;;;;;42.38;35.80;;;;;;;6.25;75.31;100039.56;2106725;28;20193;-61
2021/11/28 03:42:42;;;;;;;42.72;37.15;;;;;;;6.31;75.31;100049.66;2106639;28;20237;-61
2021/11/28 03:43:44;;;;;;;41.67;35.27;;;;;;;6.30;74.75;100058.38;2106703;28;20587;-61
2021/11/28 03:44:44;;;;;;;43.92;33.50;;;;;;;6.08;74.56;100022.13;2106688;28;20679;-61
2021/11/28 03:45:45;;;;;;;45.13;38.17;;;;;;;6.28;74.88;100053.28;2106544;28;20623;-61
2021/11/28 03:46:45;;;;;;;49.23;40.60;;;;;;;6.22;74.81;100048.66;2106574;28;20198;-61
2021/11/28 03:47:48;;;;;;;36.37;31.87;;;;;;;6.12;75.11;100041.34;2105615;28;20176;-61
2021/11/28 03:48:48;;;;;;;36.85;30.40;;;;;;;6.21;74.52;100067.13;2096974;28;20254;-62
2021/11/28 03:49:49;;;;;;;37.20;31.97;;;;;;;6.21;74.68;100075.38;2097564;28;20183;-61
2021/11/28 03:50:50;;;;;;;37.63;32.40;;;;;;;6.21;74.71;100066.34;2106458;28;20197;-61
2021/11/28 03:51:50;;;;;;;46.27;37.23;;;;;;;6.24;74.41;100065.50;2106560;28;20183;-62
2021/11/28 03:52:51;;;;;;;44.93;34.80;;;;;;;6.13;74.64;100038.19;2106496;28;20178;-61
2021/11/28 03:53:52;;;;;;;85.77;45.67;;;;;;;5.86;74.54;100012.66;2106579;28;20174;-61
2021/11/28 03:54:52;;;;;;;70.53;45.33;;;;;;;6.19;74.81;100057.72;2106566;28;20243;-61
2021/11/28 03:55:53;;;;;;;43.00;33.87;;;;;;;6.08;74.69;100040.59;2106500;28;20212;-62
2021/11/28 03:56:54;;;;;;;42.45;34.10;;;;;;;6.20;74.48;100062.81;2106459;28;20175;-61
2021/11/28 03:57:56;;;;;;;40.47;32.13;;;;;;;6.17;74.25;100071.91;2096897;28;20222;-61
2021/11/28 03:58:57;;;;;;;45.60;34.10;;;;;;;6.12;74.24;100066.09;2096330;28;20285;-61
2021/11/28 03:59:57;;;;;;;43.63;34.90;;;;;;;6.16;74.38;100067.59;2097781;28;20183;-62
2021/11/28 04:00:58;;;;;;;42.77;35.03;;;;;;;6.15;74.46;100068.03;2097812;28;20187;-61
2021/11/28 04:01:59;;;;;;;47.53;36.30;;;;;;;6.16;74.29;100064.84;2098171;28;20263;-62
2021/11/28 04:03:00;;;;;;;50.87;38.70;;;;;;;6.15;74.36;100055.03;2098015;28;20258;-62
2021/11/28 04:04:01;;;;;;;48.88;41.15;;;;;;;6.07;74.08;100048.09;2098243;28;20248;-62
2021/11/28 04:05:02;;;;;;;61.37;47.60;;;;;;;6.11;74.67;100051.56;2098080;28;20240;-61
2021/11/28 04:06:02;;;;;;;79.87;61.30;;;;;;;6.12;76.47;100053.13;2098114;28;20623;-61
2021/11/28 04:07:03;;;;;;;75.47;57.17;;;;;;;6.12;76.95;100046.84;2098058;28;20176;-62
2021/11/28 04:08:04;;;;;;;72.87;57.17;;;;;;;6.15;77.45;100044.03;2097791;28;20605;-62
2021/11/28 04:09:05;;;;;;;66.17;52.00;;;;;;;6.16;77.63;100044.81;2097124;28;20191;-62
2021/11/28 04:10:08;;;;;;;59.20;43.67;;;;;;;6.18;77.04;100042.41;2097778;28;20191;-61
2021/11/28 04:11:09;;;;;;;55.30;46.88;;;;;;;5.50;77.19;99939.31;2097726;28;20193;-61
2021/11/28 04:12:10;;;;;;;59.07;47.97;;;;;;;6.21;76.92;100047.88;2098155;28;20623;-62
2021/11/28 04:13:11;;;;;;;60.10;50.65;;;;;;;5.96;77.12;100017.22;2097986;28;20183;-61
2021/11/28 04:14:11;;;;;;;62.93;51.33;;;;;;;6.13;77.24;100056.66;2098083;28;20270;-60
2021/11/28 04:15:12;;;;;;;69.23;54.30;;;;;;;6.06;77.46;100048.50;2098027;28;20268;-60
2021/11/28 04:16:13;;;;;;;73.67;55.10;;;;;;;6.08;78.34;100057.09;2098118;28;20186;-61
2021/11/28 04:17:14;;;;;;;66.77;53.87;;;;;;;6.13;78.06;100068.44;2098129;28;20260;-61
2021/11/28 04:18:15;;;;;;;63.53;51.30;;;;;;;5.47;78.33;99957.41;2097451;28;20247;-61
2021/11/28 04:19:15;;;;;;;53.67;44.93;;;;;;;6.27;77.97;100073.72;2097521;28;20187;-61
2021/11/28 04:20:16;;;;;;;51.87;43.43;;;;;;;6.31;77.57;100076.44;2097411;28;20282;-61
2021/11/28 04:21:17;;;;;;;51.63;42.75;;;;;;;6.34;77.08;100068.13;2097596;28;20743;-61
2021/11/28 04:22:18;;;;;;;47.77;40.47;;;;;;;5.58;76.68;99960.00;2097964;28;20550;-61
2021/11/28 04:23:19;;;;;;;46.47;39.53;;;;;;;6.39;76.56;100072.34;2097893;28;20269;-61
2021/11/28 04:24:19;;;;;;;46.80;41.03;;;;;;;6.43;76.38;100079.38;2097966;28;20175;-61
2021/11/28 04:25:20;;;;;;;46.63;39.20;;;;;;;6.45;76.17;100078.94;2097966;28;20176;-61
2021/11/28 04:26:21;;;;;;;43.37;37.50;;;;;;;6.46;76.18;100084.03;2097971;28;20176;-61
2021/11/28 04:27:22;;;;;;;39.38;35.03;;;;;;;6.49;75.65;100087.91;2101535;28;20334;-60
2021/11/28 04:28:23;;;;;;;39.70;34.37;;;;;;;6.48;74.97;100087.16;2105685;28;20179;-62
2021/11/28 04:29:23;;;;;;;40.87;35.63;;;;;;;6.46;74.52;100089.53;2105854;28;20809;-62
2021/11/28 04:30:26;;;;;;;39.93;34.97;;;;;;;6.48;74.98;100086.38;2105780;28;20631;-61
2021/11/28 04:31:26;;;;;;;44.60;38.10;;;;;;;6.48;74.22;100078.13;2105914;28;20177;-61
2021/11/28 04:32:27;;;;;;;55.80;43.43;;;;;;;6.28;74.36;100046.97;2106269;28;20175;-61
2021/11/28 04:33:28;;;;;;;48.33;40.77;;;;;;;6.44;74.30;100072.66;2106260;28;20635;-62
2021/11/28 04:34:28;;;;;;;41.10;36.17;;;;;;;5.76;74.10;99963.28;2106312;28;20594;-61
2021/11/28 04:35:29;;;;;;;47.40;38.93;;;;;;;6.38;74.57;100059.78;2106200;28;20629;-61
2021/11/28 04:36:29;;;;;;;48.70;38.87;;;;;;;6.42;73.96;100077.78;2106387;28;20206;-61
2021/11/28 04:37:30;;;;;;;50.63;39.03;;;;;;;6.44;73.85;100088.41;2105901;28;20645;-61
2021/11/28 04:38:31;;;;;;;54.25;41.13;;;;;;;6.41;73.99;100075.50;2105981;28;20247;-61
2021/11/28 04:39:32;;;;;;;49.00;42.20;;;;;;;6.38;74.00;100068.03;2105813;28;20683;-61
2021/11/28 04:40:32;;;;;;;46.37;38.40;;;;;;;6.29;74.06;100062.28;2106197;28;20534;-61
2021/11/28 04:41:33;;;;;;;42.43;36.13;;;;;;;6.32;73.43;100072.47;2105178;28;20171;-62
2021/11/28 04:42:33;;;;;;;44.73;38.33;;;;;;;6.33;74.03;100079.53;2106353;28;20174;-61
2021/11/28 04:43:34;;;;;;;42.47;35.50;;;;;;;6.33;73.96;100080.31;2106034;28;20233;-61
2021/11/28 04:44:35;;;;;;;46.37;39.47;;;;;;;6.35;74.07;100074.41;2106276;28;20178;-60
2021/11/28 04:45:35;;;;;;;51.60;42.57;;;;;;;6.34;74.32;100070.06;2106200;28;20710;-62
2021/11/28 04:46:37;;;;;;;52.17;42.47;;;;;;;6.28;74.74;100072.53;2106091;28;20174;-61